Time;durP1;ratioP1;P1;durP2;ratioP2;P2;SDS_P1;SDS_P2;PMS_P1;PMS_P2;Temp;Humidity;BMP_temperature;BMP_pressure;BME280_temperature;BME280_humidity;BME280_pressure;Samples;Min_cycle;Max_cycle;Signal;HPM_P1;HPM_P2
2021/03/28 00:02:05;;;;;;;10.02;2.65;;;;;;;;;;4980146;28;20404;-89
2021/03/28 00:04:42;;;;;;;8.52;3.03;;;;;;;;;;5003506;28;20912;-90
2021/03/28 00:07:11;;;;;;;6.78;2.67;;;;;;;;;;4999631;28;20407;-89
2021/03/28 00:09:37;;;;;;;7.45;2.78;;;;;;;;;;4999369;28;20403;-89
2021/03/28 00:12:21;;;;;;;8.43;3.00;;;;;;;;;;5033634;28;20441;-90
2021/03/28 00:14:52;;;;;;;9.77;3.38;;;;;;;;;;4998927;28;20419;-89
2021/03/28 00:17:21;;;;;;;7.00;3.08;;;;;;;;;;5015598;28;20914;-89
2021/03/28 00:20:06;;;;;;;7.32;3.25;;;;;;;;;;4999408;28;20482;-90
2021/03/28 00:22:34;;;;;;;8.35;3.45;;;;;;;;;;5015235;28;20813;-90
2021/03/28 00:25:03;;;;;;;8.70;3.10;;;;;;;;;;5025394;28;20542;-89
2021/03/28 00:27:29;;;;;;;7.72;2.70;;;;;;;;;;5033129;28;20402;-89
2021/03/28 00:29:56;;;;;;;10.63;3.00;;;;;;;;;;5014594;28;20406;-89
2021/03/28 00:32:23;;;;;;;8.93;3.15;;;;;;;;;;4999293;28;20388;-90
2021/03/28 00:34:51;;;;;;;8.63;3.40;;;;;;;;;;5000373;28;20403;-89
2021/03/28 00:37:22;;;;;;;9.93;3.87;;;;;;;;;;5025655;28;20471;-89
2021/03/28 00:40:02;;;;;;;7.40;2.78;;;;;;;;;;5015589;28;20791;-89
2021/03/28 00:42:31;;;;;;;8.93;3.47;;;;;;;;;;4998834;28;20408;-90
2021/03/28 00:45:00;;;;;;;10.63;2.80;;;;;;;;;;5014360;28;20765;-89
2021/03/28 00:47:28;;;;;;;10.68;3.05;;;;;;;;;;5014253;28;20485;-89
2021/03/28 00:50:02;;;;;;;7.05;3.58;;;;;;;;;;5012804;28;20403;-89
2021/03/28 00:52:30;;;;;;;8.00;3.10;;;;;;;;;;5005091;28;20403;-89
2021/03/28 00:55:11;;;;;;;9.13;3.30;;;;;;;;;;4998904;28;20399;-90
2021/03/28 00:57:39;;;;;;;7.95;3.20;;;;;;;;;;4998868;28;20411;-90
2021/03/28 01:00:13;;;;;;;12.65;3.78;;;;;;;;;;4998690;28;21299;-90
2021/03/28 01:02:43;;;;;;;10.88;3.30;;;;;;;;;;5014831;28;20399;-90
2021/03/28 01:05:18;;;;;;;7.75;3.20;;;;;;;;;;4998211;28;20402;-90
2021/03/28 01:08:01;;;;;;;12.77;3.83;;;;;;;;;;4998940;28;20403;-89
2021/03/28 01:10:42;;;;;;;8.02;2.90;;;;;;;;;;4998464;28;20388;-90
2021/03/28 01:13:27;;;;;;;7.05;2.80;;;;;;;;;;4998676;28;20399;-89
2021/03/28 01:16:11;;;;;;;12.05;3.80;;;;;;;;;;5031029;28;20441;-89
2021/03/28 01:18:43;;;;;;;6.43;2.85;;;;;;;;;;5031367;28;20926;-89
2021/03/28 01:21:10;;;;;;;9.40;3.50;;;;;;;;;;5032136;28;20405;-89
2021/03/28 01:23:40;;;;;;;7.22;3.40;;;;;;;;;;4999936;28;20418;-90
2021/03/28 01:26:22;;;;;;;10.40;3.50;;;;;;;;;;4998501;28;20635;-90
2021/03/28 01:28:52;;;;;;;9.45;3.35;;;;;;;;;;4998236;28;20782;-90
2021/03/28 01:31:23;;;;;;;7.53;2.83;;;;;;;;;;5014684;28;20405;-89
2021/03/28 01:34:25;;;;;;;7.90;3.35;;;;;;;;;;5027391;28;20413;-89
2021/03/28 01:37:03;;;;;;;10.65;3.70;;;;;;;;;;4976034;28;20451;-90
2021/03/28 01:39:39;;;;;;;11.82;3.13;;;;;;;;;;5006596;28;20899;-90
2021/03/28 01:42:08;;;;;;;9.68;3.13;;;;;;;;;;5014343;28;20383;-89
2021/03/28 01:44:40;;;;;;;8.45;3.28;;;;;;;;;;4998157;28;20414;-90
2021/03/28 01:47:24;;;;;;;9.32;3.78;;;;;;;;;;5025021;28;20441;-89
2021/03/28 01:50:08;;;;;;;11.35;3.30;;;;;;;;;;5030593;28;20414;-89
2021/03/28 01:52:37;;;;;;;8.27;3.10;;;;;;;;;;5031657;28;20391;-89
2021/03/28 01:55:03;;;;;;;7.65;3.00;;;;;;;;;;5046939;28;20399;-89
2021/03/28 01:57:38;;;;;;;8.70;3.47;;;;;;;;;;5037184;28;20421;-89
2021/03/28 02:00:22;;;;;;;5.00;2.67;;;;;;;;;;5013882;28;20399;-89
2021/03/28 02:02:53;;;;;;;6.20;2.72;;;;;;;;;;4997496;28;20497;-90
2021/03/28 02:05:38;;;;;;;9.82;3.17;;;;;;;;;;4997348;28;20406;-90
2021/03/28 02:08:11;;;;;;;13.02;2.95;;;;;;;;;;5031122;28;20406;-90
2021/03/28 02:10:56;;;;;;;8.73;2.92;;;;;;;;;;4997134;28;20403;-90
2021/03/28 02:13:40;;;;;;;6.68;2.70;;;;;;;;;;5013576;28;20387;-89
2021/03/28 02:16:06;;;;;;;9.15;2.35;;;;;;;;;;5013145;28;20410;-89
2021/03/28 02:18:50;;;;;;;7.35;2.17;;;;;;;;;;5013611;28;20419;-90
2021/03/28 02:21:34;;;;;;;8.80;2.35;;;;;;;;;;4997334;28;20403;-90
2021/03/28 02:24:09;;;;;;;5.85;2.33;;;;;;;;;;5005985;28;20902;-90
2021/03/28 02:26:45;;;;;;;10.77;3.35;;;;;;;;;;4996538;28;20843;-90
2021/03/28 02:29:21;;;;;;;9.90;2.55;;;;;;;;;;4996489;28;20817;-90
2021/03/28 02:32:06;;;;;;;9.25;2.60;;;;;;;;;;4997475;28;20406;-90
2021/03/28 02:34:37;;;;;;;10.40;2.83;;;;;;;;;;5013672;28;20470;-90
2021/03/28 02:37:13;;;;;;;8.57;2.70;;;;;;;;;;5029355;28;20485;-90
2021/03/28 02:39:51;;;;;;;6.80;3.00;;;;;;;;;;5013595;28;20499;-89
2021/03/28 02:42:26;;;;;;;10.87;3.47;;;;;;;;;;5013073;28;20395;-89
2021/03/28 02:45:01;;;;;;;7.78;2.70;;;;;;;;;;5015291;28;20742;-89
2021/03/28 02:47:32;;;;;;;8.35;2.20;;;;;;;;;;5013136;28;20478;-90
2021/03/28 02:50:01;;;;;;;6.90;2.10;;;;;;;;;;4997006;28;20411;-89
2021/03/28 02:53:03;;;;;;;9.43;3.92;;;;;;;;;;5015036;28;20410;-90
2021/03/28 02:55:29;;;;;;;14.63;6.17;;;;;;;;;;4968352;28;20406;-90
2021/03/28 02:58:01;;;;;;;15.40;6.85;;;;;;;;;;5016970;28;20427;-90
2021/03/28 03:00:39;;;;;;;16.83;8.07;;;;;;;;;;5016943;28;20407;-89
2021/03/28 03:03:14;;;;;;;15.03;4.47;;;;;;;;;;5016949;28;20478;-90
2021/03/28 03:05:43;;;;;;;7.47;2.40;;;;;;;;;;5016693;28;20395;-90
2021/03/28 03:08:10;;;;;;;7.03;2.28;;;;;;;;;;5016873;28;20399;-90
2021/03/28 03:10:49;;;;;;;7.07;2.42;;;;;;;;;;5000313;28;20410;-90
2021/03/28 03:13:30;;;;;;;7.10;2.27;;;;;;;;;;5016576;28;20391;-89
2021/03/28 03:16:18;;;;;;;8.77;2.25;;;;;;;;;;5003701;28;20502;-90
2021/03/28 03:19:03;;;;;;;8.02;2.53;;;;;;;;;;5016948;28;20480;-89
2021/03/28 03:21:39;;;;;;;7.45;3.05;;;;;;;;;;5015947;28;20512;-90
2021/03/28 03:24:28;;;;;;;8.10;2.20;;;;;;;;;;5016307;28;20391;-89
2021/03/28 03:27:20;;;;;;;10.32;3.75;;;;;;;;;;5000099;28;20404;-89
2021/03/28 03:29:46;;;;;;;8.48;2.80;;;;;;;;;;4998483;28;20435;-89
2021/03/28 03:32:23;;;;;;;7.65;2.63;;;;;;;;;;5030756;28;20419;-89
2021/03/28 03:35:02;;;;;;;8.25;3.00;;;;;;;;;;4999809;28;20415;-89
2021/03/28 03:37:46;;;;;;;6.60;2.60;;;;;;;;;;5016169;28;20411;-90
2021/03/28 03:40:13;;;;;;;6.10;1.70;;;;;;;;;;5033738;28;20847;-89
2021/03/28 03:42:42;;;;;;;7.17;2.50;;;;;;;;;;4999450;28;20462;-89
2021/03/28 03:45:29;;;;;;;7.60;2.50;;;;;;;;;;5048332;28;20399;-89
2021/03/28 03:47:58;;;;;;;9.52;2.40;;;;;;;;;;5015858;28;20396;-90
2021/03/28 03:50:30;;;;;;;9.10;2.07;;;;;;;;;;5033420;28;20904;-89
2021/03/28 03:53:15;;;;;;;10.88;2.80;;;;;;;;;;5032140;28;20418;-89
2021/03/28 03:55:42;;;;;;;9.23;2.15;;;;;;;;;;5048348;28;20412;-89
2021/03/28 03:58:13;;;;;;;5.70;1.77;;;;;;;;;;5028767;28;20469;-90
2021/03/28 04:00:41;;;;;;;5.88;1.83;;;;;;;;;;5024820;28;20454;-89
2021/03/28 04:03:16;;;;;;;7.68;2.22;;;;;;;;;;5014685;28;20407;-89
2021/03/28 04:05:49;;;;;;;6.25;1.77;;;;;;;;;;4999536;28;20395;-89
2021/03/28 04:08:34;;;;;;;8.57;2.53;;;;;;;;;;5015849;28;20434;-89
2021/03/28 04:11:19;;;;;;;5.85;1.80;;;;;;;;;;5014148;28;20403;-89
2021/03/28 04:13:52;;;;;;;4.78;2.03;;;;;;;;;;5015217;28;20395;-89
2021/03/28 04:16:18;;;;;;;6.00;1.80;;;;;;;;;;4999104;28;20430;-89
2021/03/28 04:18:49;;;;;;;8.32;2.40;;;;;;;;;;5015402;28;20426;-90
2021/03/28 04:21:34;;;;;;;7.28;2.30;;;;;;;;;;5015800;28;20410;-89
2021/03/28 04:24:22;;;;;;;9.68;1.80;;;;;;;;;;5020225;28;20404;-89
2021/03/28 04:27:00;;;;;;;5.82;1.95;;;;;;;;;;5005213;28;20501;-89
2021/03/28 04:29:26;;;;;;;6.13;2.03;;;;;;;;;;5032772;28;20553;-89
2021/03/28 04:32:11;;;;;;;6.30;2.10;;;;;;;;;;5015493;28;20486;-89
2021/03/28 04:34:55;;;;;;;6.13;1.90;;;;;;;;;;5015101;28;20384;-89
2021/03/28 04:37:40;;;;;;;7.10;2.60;;;;;;;;;;5015005;28;20423;-89
2021/03/28 04:40:09;;;;;;;6.88;1.80;;;;;;;;;;5015063;28;20398;-89
2021/03/28 04:42:38;;;;;;;5.90;1.92;;;;;;;;;;5014392;28;20411;-89
2021/03/28 04:45:11;;;;;;;5.60;1.58;;;;;;;;;;5014674;28;20747;-89
2021/03/28 04:47:56;;;;;;;7.60;2.07;;;;;;;;;;5014993;28;20951;-89
2021/03/28 04:50:34;;;;;;;7.05;1.80;;;;;;;;;;5032670;28;20917;-89
2021/03/28 04:53:03;;;;;;;9.32;2.55;;;;;;;;;;5032067;28;20847;-89
2021/03/28 04:55:48;;;;;;;14.13;5.85;;;;;;;;;;5017513;28;20407;-89
2021/03/28 04:58:22;;;;;;;21.77;8.50;;;;;;;;;;5013633;28;20426;-89
2021/03/28 05:01:07;;;;;;;17.30;7.07;;;;;;;;;;4997798;28;20457;-89
2021/03/28 05:03:45;;;;;;;6.80;2.28;;;;;;;;;;5011736;28;20433;-89
2021/03/28 05:06:14;;;;;;;7.83;2.33;;;;;;;;;;5014997;28;20471;-89
2021/03/28 05:08:43;;;;;;;6.15;2.33;;;;;;;;;;5014571;28;20423;-89
2021/03/28 05:11:18;;;;;;;7.25;2.10;;;;;;;;;;5014264;28;20483;-89
2021/03/28 05:13:58;;;;;;;9.20;2.03;;;;;;;;;;5014312;28;20404;-89
2021/03/28 05:16:52;;;;;;;6.90;1.83;;;;;;;;;;4997665;28;20415;-90
2021/03/28 05:19:22;;;;;;;7.82;2.00;;;;;;;;;;5009411;28;20415;-89
2021/03/28 05:22:06;;;;;;;9.98;3.30;;;;;;;;;;5031207;28;20407;-89
2021/03/28 05:24:48;;;;;;;9.10;2.38;;;;;;;;;;5031410;28;20414;-89
2021/03/28 05:27:28;;;;;;;6.97;3.03;;;;;;;;;;4997972;28;20414;-89
2021/03/28 05:29:57;;;;;;;8.80;3.00;;;;;;;;;;4997920;28;20398;-88
2021/03/28 05:32:41;;;;;;;7.78;3.22;;;;;;;;;;5019653;28;20396;-88
2021/03/28 05:35:26;;;;;;;9.18;3.10;;;;;;;;;;5014236;28;20411;-88
2021/03/28 05:38:11;;;;;;;11.00;2.92;;;;;;;;;;5013764;28;20480;-88
2021/03/28 05:40:50;;;;;;;6.75;2.58;;;;;;;;;;5014167;28;20387;-89
2021/03/28 05:43:25;;;;;;;10.13;2.45;;;;;;;;;;4997326;28;20403;-91
2021/03/28 05:45:51;;;;;;;5.70;1.93;;;;;;;;;;5031734;28;20485;-88
2021/03/28 05:48:33;;;;;;;8.45;3.63;;;;;;;;;;5013899;28;20810;-91
2021/03/28 05:51:18;;;;;;;8.98;3.10;;;;;;;;;;5014035;28;20445;-88
2021/03/28 05:54:03;;;;;;;11.63;4.03;;;;;;;;;;5019627;28;20403;-88
2021/03/28 05:56:29;;;;;;;7.25;3.40;;;;;;;;;;5016208;28;20406;-89
2021/03/28 05:59:01;;;;;;;11.57;3.10;;;;;;;;;;5013134;28;20438;-88
2021/03/28 06:01:30;;;;;;;5.32;1.70;;;;;;;;;;5013855;28;20476;-90
2021/03/28 06:04:15;;;;;;;8.27;2.13;;;;;;;;;;4996696;28;20445;-90
2021/03/28 06:06:59;;;;;;;9.05;2.08;;;;;;;;;;5031423;28;20904;-90
2021/03/28 06:09:44;;;;;;;8.25;3.00;;;;;;;;;;5007441;28;20899;-90
2021/03/28 06:12:22;;;;;;;10.65;2.97;;;;;;;;;;5013631;28;20402;-91
2021/03/28 06:15:00;;;;;;;8.25;2.53;;;;;;;;;;5013306;28;20506;-90
2021/03/28 06:17:27;;;;;;;8.13;2.78;;;;;;;;;;5012121;28;20461;-93
2021/03/28 06:19:53;;;;;;;7.10;2.20;;;;;;;;;;4997805;28;20488;-93
2021/03/28 06:22:19;;;;;;;5.22;2.28;;;;;;;;;;5042387;28;20432;-89
2021/03/28 06:25:04;;;;;;;7.38;2.15;;;;;;;;;;5018831;28;20394;-91
2021/03/28 06:27:42;;;;;;;4.80;2.25;;;;;;;;;;5013219;28;20405;-90
2021/03/28 06:30:17;;;;;;;10.00;2.30;;;;;;;;;;5034470;28;20387;-88
2021/03/28 06:32:52;;;;;;;8.80;2.30;;;;;;;;;;5019813;28;20403;-91
2021/03/28 06:35:37;;;;;;;4.88;1.90;;;;;;;;;;5000603;28;20845;-88
2021/03/28 06:38:06;;;;;;;7.10;1.90;;;;;;;;;;5020523;28;20430;-90
2021/03/28 06:40:40;;;;;;;4.78;1.67;;;;;;;;;;5017138;28;20387;-93
2021/03/28 06:43:29;;;;;;;11.73;2.43;;;;;;;;;;5019694;28;20403;-90
2021/03/28 06:46:07;;;;;;;6.93;2.33;;;;;;;;;;4985798;28;20399;-90
2021/03/28 06:48:43;;;;;;;6.93;2.40;;;;;;;;;;5007160;28;20538;-90
2021/03/28 06:51:24;;;;;;;8.38;4.03;;;;;;;;;;5002029;28;20478;-92
2021/03/28 06:54:41;;;;;;;11.93;4.47;;;;;;;;;;5015137;28;20403;-91
2021/03/28 06:56:48;;;;;;;7.80;3.30;;;;;;;;;;5023790;28;20410;-92
2021/03/28 06:59:25;;;;;;;7.53;2.38;;;;;;;;;;5020825;28;20499;-95
2021/03/28 07:01:56;;;;;;;5.90;2.30;;;;;;;;;;5020145;28;20411;-90
2021/03/28 07:04:32;;;;;;;9.70;2.78;;;;;;;;;;4999138;28;20422;-89
2021/03/28 07:07:13;;;;;;;6.93;2.28;;;;;;;;;;5008606;28;20403;-89
2021/03/28 07:09:41;;;;;;;5.38;2.15;;;;;;;;;;5013163;28;20418;-89
2021/03/28 07:12:27;;;;;;;5.80;2.40;;;;;;;;;;5022003;28;20407;-88
2021/03/28 07:14:59;;;;;;;12.35;4.90;;;;;;;;;;5032174;28;20439;-90
2021/03/28 07:17:34;;;;;;;19.73;6.00;;;;;;;;;;5033089;28;20423;-90
2021/03/28 07:20:08;;;;;;;9.32;3.63;;;;;;;;;;5015860;28;20414;-89
2021/03/28 07:22:45;;;;;;;9.23;3.05;;;;;;;;;;4998755;28;20934;-91
2021/03/28 07:25:25;;;;;;;13.07;3.30;;;;;;;;;;4999346;28;20889;-89
2021/03/28 07:28:10;;;;;;;15.65;3.45;;;;;;;;;;5024904;28;20875;-90
2021/03/28 07:30:54;;;;;;;10.25;3.33;;;;;;;;;;5016444;28;20438;-90
2021/03/28 07:33:23;;;;;;;6.13;3.38;;;;;;;;;;5018656;28;20399;-89
2021/03/28 07:35:56;;;;;;;10.65;4.00;;;;;;;;;;5015519;28;20403;-90
2021/03/28 07:38:35;;;;;;;5.93;2.80;;;;;;;;;;5012163;28;20517;-89
2021/03/28 07:41:06;;;;;;;8.88;3.33;;;;;;;;;;5000625;28;20399;-89
2021/03/28 07:43:53;;;;;;;7.63;2.60;;;;;;;;;;4999514;28;20415;-91
2021/03/28 07:46:39;;;;;;;9.75;3.25;;;;;;;;;;5003175;28;20792;-88
2021/03/28 07:49:24;;;;;;;7.65;2.85;;;;;;;;;;5003803;28;20402;-89
2021/03/28 07:52:02;;;;;;;10.23;3.25;;;;;;;;;;5037145;28;20905;-89
2021/03/28 07:54:47;;;;;;;9.40;2.20;;;;;;;;;;5000153;28;20747;-88
2021/03/28 07:57:25;;;;;;;6.40;2.47;;;;;;;;;;5038800;28;20414;-89
2021/03/28 07:59:55;;;;;;;7.45;3.15;;;;;;;;;;5003715;28;20410;-90
2021/03/28 08:02:37;;;;;;;4.80;2.33;;;;;;;;;;5000340;28;20442;-92
2021/03/28 08:05:12;;;;;;;5.60;2.20;;;;;;;;;;4998439;28;20410;-90
2021/03/28 08:07:41;;;;;;;7.53;2.97;;;;;;;;;;4999476;28;20430;-89
2021/03/28 08:10:26;;;;;;;6.72;2.67;;;;;;;;;;5035032;28;20783;-89
2021/03/28 08:12:54;;;;;;;6.53;2.40;;;;;;;;;;5039000;28;20403;-90
2021/03/28 08:15:29;;;;;;;5.13;2.10;;;;;;;;;;5015292;28;20419;-90
2021/03/28 08:18:13;;;;;;;3.97;2.13;;;;;;;;;;5011484;28;20429;-90
2021/03/28 08:20:58;;;;;;;5.50;2.45;;;;;;;;;;5032070;28;20391;-90
2021/03/28 08:23:24;;;;;;;5.87;2.50;;;;;;;;;;5015648;28;20403;-92
2021/03/28 08:26:00;;;;;;;3.72;2.10;;;;;;;;;;5010631;28;20434;-90
2021/03/28 08:28:44;;;;;;;4.18;2.40;;;;;;;;;;5011766;28;20413;-91
2021/03/28 08:31:21;;;;;;;5.57;2.40;;;;;;;;;;5015411;28;20391;-90
2021/03/28 08:34:05;;;;;;;4.60;2.42;;;;;;;;;;4999923;28;20890;-90
2021/03/28 08:36:44;;;;;;;4.90;3.20;;;;;;;;;;5019743;28;20403;-91
2021/03/28 08:39:19;;;;;;;5.40;2.75;;;;;;;;;;5015881;28;20387;-91
2021/03/28 08:41:54;;;;;;;4.82;2.53;;;;;;;;;;4994569;28;20412;-91
2021/03/28 08:44:43;;;;;;;6.55;3.00;;;;;;;;;;5018788;28;20399;-91
2021/03/28 08:47:24;;;;;;;3.97;2.35;;;;;;;;;;5001928;28;20491;-91
2021/03/28 08:50:21;;;;;;;7.60;2.55;;;;;;;;;;5014082;28;20486;-91
2021/03/28 08:52:54;;;;;;;5.32;2.40;;;;;;;;;;5011257;28;20443;-91
2021/03/28 08:55:42;;;;;;;5.40;2.42;;;;;;;;;;5002141;28;20403;-92
2021/03/28 08:58:23;;;;;;;6.47;2.47;;;;;;;;;;5030621;28;20418;-91
2021/03/28 09:01:08;;;;;;;4.20;2.10;;;;;;;;;;5009853;28;20453;-91
2021/03/28 09:03:34;;;;;;;4.97;2.10;;;;;;;;;;4997242;28;20391;-92
2021/03/28 09:06:08;;;;;;;4.30;2.00;;;;;;;;;;5015082;28;20949;-92
2021/03/28 09:08:40;;;;;;;4.68;2.03;;;;;;;;;;4993575;28;20411;-90
2021/03/28 09:11:31;;;;;;;4.45;2.47;;;;;;;;;;5009778;28;20481;-90
2021/03/28 09:14:04;;;;;;;5.65;2.17;;;;;;;;;;4999465;28;20430;-91
2021/03/28 09:16:39;;;;;;;2.75;1.90;;;;;;;;;;5004554;28;20487;-92
2021/03/28 09:19:23;;;;;;;3.10;2.00;;;;;;;;;;5028984;28;20426;-92
2021/03/28 09:21:53;;;;;;;2.63;1.90;;;;;;;;;;5014226;28;20387;-92
2021/03/28 09:24:26;;;;;;;4.85;1.67;;;;;;;;;;4995255;28;20410;-91
2021/03/28 09:26:52;;;;;;;3.43;1.90;;;;;;;;;;5030171;28;20414;-91
2021/03/28 09:30:05;;;;;;;4.57;2.13;;;;;;;;;;5013737;28;20949;-91
2021/03/28 09:32:52;;;;;;;4.63;2.33;;;;;;;;;;5015156;28;20418;-92
2021/03/28 09:35:36;;;;;;;3.88;2.00;;;;;;;;;;5008929;28;21164;-91
2021/03/28 09:38:09;;;;;;;5.60;2.20;;;;;;;;;;5013022;28;20437;-90
2021/03/28 09:40:41;;;;;;;4.95;2.30;;;;;;;;;;4981705;28;20409;-91
2021/03/28 09:43:20;;;;;;;2.35;1.65;;;;;;;;;;5013003;28;20498;-91
2021/03/28 09:46:05;;;;;;;3.20;1.92;;;;;;;;;;4991165;28;20434;-91
2021/03/28 09:48:50;;;;;;;3.10;1.90;;;;;;;;;;5010248;28;20414;-91
2021/03/28 09:51:35;;;;;;;3.03;1.67;;;;;;;;;;4993073;28;20386;-91
2021/03/28 09:54:22;;;;;;;6.60;2.03;;;;;;;;;;4992243;28;20446;-91
2021/03/28 09:56:59;;;;;;;3.35;1.63;;;;;;;;;;4980705;28;22648;-92
2021/03/28 09:59:25;;;;;;;2.05;1.67;;;;;;;;;;4977993;28;20426;-91
2021/03/28 10:02:00;;;;;;;4.90;1.60;;;;;;;;;;5021760;28;20395;-91
2021/03/28 10:04:38;;;;;;;4.35;1.65;;;;;;;;;;5011793;28;20415;-90
2021/03/28 10:07:05;;;;;;;3.63;1.77;;;;;;;;;;5032933;28;20406;-91
2021/03/28 10:09:49;;;;;;;2.93;1.77;;;;;;;;;;5009957;28;20450;-92
2021/03/28 10:12:24;;;;;;;2.30;2.10;;;;;;;;;;5009605;28;20461;-91
2021/03/28 10:14:59;;;;;;;5.20;2.40;;;;;;;;;;4997013;28;20453;-91
2021/03/28 10:17:44;;;;;;;3.10;1.50;;;;;;;;;;5026905;28;20427;-95
2021/03/28 10:20:16;;;;;;;4.03;2.28;;;;;;;;;;5039130;28;20435;-91
2021/03/28 10:22:52;;;;;;;2.53;1.50;;;;;;;;;;5027324;28;20486;-90
2021/03/28 10:25:32;;;;;;;4.63;1.75;;;;;;;;;;4987171;28;20407;-91
2021/03/28 10:28:17;;;;;;;2.75;1.20;;;;;;;;;;5011011;28;20929;-91
2021/03/28 10:30:46;;;;;;;5.00;2.10;;;;;;;;;;5002258;28;20891;-91
2021/03/28 10:33:16;;;;;;;2.80;1.40;;;;;;;;;;5017387;28;20442;-92
2021/03/28 10:35:45;;;;;;;3.22;1.40;;;;;;;;;;5027717;28;21018;-92
2021/03/28 10:38:30;;;;;;;2.38;1.08;;;;;;;;;;5044236;28;20603;-92
2021/03/28 10:44:10;;;;;;;2.22;1.38;;;;;;;;;;5025539;28;20428;-91
2021/03/28 10:46:36;;;;;;;3.67;1.50;;;;;;;;;;5001093;28;20869;-91
2021/03/28 10:49:21;;;;;;;5.38;2.10;;;;;;;;;;5014222;28;20989;-92
2021/03/28 10:52:10;;;;;;;1.73;1.00;;;;;;;;;;5002961;28;20436;-91
2021/03/28 10:54:45;;;;;;;2.75;1.40;;;;;;;;;;4986879;28;21094;-91
2021/03/28 10:57:21;;;;;;;2.30;1.40;;;;;;;;;;4997851;28;20422;-90
2021/03/28 11:00:01;;;;;;;3.05;1.55;;;;;;;;;;5004209;28;20428;-91
2021/03/28 11:02:33;;;;;;;3.53;1.40;;;;;;;;;;5020541;28;20786;-92
2021/03/28 11:04:59;;;;;;;4.07;1.40;;;;;;;;;;5045270;28;20430;-92
2021/03/28 11:07:30;;;;;;;3.65;1.90;;;;;;;;;;5007897;28;20496;-93
2021/03/28 11:10:14;;;;;;;3.15;1.95;;;;;;;;;;4983602;28;20407;-93
2021/03/28 11:12:59;;;;;;;3.55;2.15;;;;;;;;;;5038440;28;20436;-96
2021/03/28 11:15:27;;;;;;;3.33;2.08;;;;;;;;;;5015921;28;20924;-93
2021/03/28 11:17:59;;;;;;;2.53;1.90;;;;;;;;;;4997871;28;20462;-92
2021/03/28 11:20:25;;;;;;;3.08;1.40;;;;;;;;;;5011567;28;20403;-92
2021/03/28 11:22:59;;;;;;;3.47;1.80;;;;;;;;;;5017106;28;20473;-92
2021/03/28 11:25:26;;;;;;;5.32;1.67;;;;;;;;;;5019001;28;20440;-93
2021/03/28 11:27:55;;;;;;;5.53;3.30;;;;;;;;;;4998324;28;20410;-93
2021/03/28 11:30:31;;;;;;;4.00;2.38;;;;;;;;;;5020286;28;20402;-92
2021/03/28 11:33:12;;;;;;;3.40;1.83;;;;;;;;;;5001156;28;20407;-92
2021/03/28 11:35:40;;;;;;;3.83;2.15;;;;;;;;;;5014592;28;20395;-92
2021/03/28 11:39:27;;;;;;;3.88;1.77;;;;;;;;;;5015897;28;20423;-92
2021/03/28 11:41:40;;;;;;;3.65;1.30;;;;;;;;;;4955323;29;20410;-92
2021/03/28 11:44:32;;;;;;;5.03;1.93;;;;;;;;;;4918411;29;20417;-93
2021/03/28 11:47:04;;;;;;;4.38;1.80;;;;;;;;;;5002313;28;20485;-93
2021/03/28 11:49:37;;;;;;;3.05;2.17;;;;;;;;;;4995656;28;20419;-92
2021/03/28 11:52:09;;;;;;;3.95;2.53;;;;;;;;;;4995193;28;20446;-91
2021/03/28 11:54:35;;;;;;;6.05;2.75;;;;;;;;;;4989722;28;20415;-93
2021/03/28 11:57:07;;;;;;;3.83;1.67;;;;;;;;;;4986578;28;20465;-92
2021/03/28 12:00:00;;;;;;;4.80;2.45;;;;;;;;;;5006020;28;20493;-92
2021/03/28 12:02:31;;;;;;;2.65;1.83;;;;;;;;;;4985027;28;20418;-93
2021/03/28 12:04:57;;;;;;;3.05;1.80;;;;;;;;;;4994801;28;22693;-92
2021/03/28 12:07:26;;;;;;;5.15;2.22;;;;;;;;;;5007605;28;20422;-94
2021/03/28 12:10:04;;;;;;;3.78;2.05;;;;;;;;;;5000906;28;20530;-92
2021/03/28 12:12:33;;;;;;;3.22;2.10;;;;;;;;;;5009191;28;20410;-91
2021/03/28 12:15:19;;;;;;;3.20;1.80;;;;;;;;;;4994151;28;20508;-94
2021/03/28 12:17:45;;;;;;;3.35;1.70;;;;;;;;;;4996111;28;20404;-92
2021/03/28 12:20:16;;;;;;;2.90;1.57;;;;;;;;;;4965234;28;20904;-92
2021/03/28 12:22:42;;;;;;;2.63;1.40;;;;;;;;;;4964361;28;20413;-92
2021/03/28 12:25:14;;;;;;;2.92;1.45;;;;;;;;;;4986850;28;20784;-92
2021/03/28 12:27:41;;;;;;;3.22;1.33;;;;;;;;;;4981650;28;20421;-92
2021/03/28 12:30:26;;;;;;;3.40;1.60;;;;;;;;;;4971577;28;20411;-94
2021/03/28 12:32:54;;;;;;;1.55;1.40;;;;;;;;;;4982695;28;20967;-91
2021/03/28 12:35:25;;;;;;;3.00;1.77;;;;;;;;;;4962306;28;20957;-93
2021/03/28 12:37:51;;;;;;;3.72;2.03;;;;;;;;;;5003765;28;20524;-93
2021/03/28 12:40:22;;;;;;;3.92;1.75;;;;;;;;;;4974232;28;20504;-94
2021/03/28 12:42:51;;;;;;;3.00;1.42;;;;;;;;;;4984289;28;20404;-93
2021/03/28 12:45:18;;;;;;;3.55;1.50;;;;;;;;;;5016404;28;20424;-91
2021/03/28 12:47:50;;;;;;;2.53;1.27;;;;;;;;;;4996083;28;20419;-93
2021/03/28 12:50:19;;;;;;;4.05;1.25;;;;;;;;;;4980117;28;20416;-93
2021/03/28 12:52:51;;;;;;;2.55;1.52;;;;;;;;;;4982871;28;20410;-93
2021/03/28 12:55:19;;;;;;;3.60;1.73;;;;;;;;;;4987144;28;20491;-91
2021/03/28 12:57:46;;;;;;;3.13;1.70;;;;;;;;;;4966640;28;20397;-91
2021/03/28 13:00:12;;;;;;;2.17;1.35;;;;;;;;;;4983858;28;20417;-92
2021/03/28 13:02:44;;;;;;;4.43;1.75;;;;;;;;;;4994942;28;20415;-91
2021/03/28 13:05:13;;;;;;;3.63;1.63;;;;;;;;;;4967818;28;20432;-91
2021/03/28 13:07:45;;;;;;;4.80;1.95;;;;;;;;;;5017130;28;20425;-92
2021/03/28 13:10:30;;;;;;;3.35;1.63;;;;;;;;;;5000849;28;20398;-89
2021/03/28 13:12:58;;;;;;;2.10;1.27;;;;;;;;;;5007753;28;20522;-88
2021/03/28 13:15:24;;;;;;;57.22;4.68;;;;;;;;;;4985671;28;20951;-89
2021/03/28 13:18:01;;;;;;;3.42;1.35;;;;;;;;;;5010385;28;20436;-96
2021/03/28 13:20:37;;;;;;;4.50;1.42;;;;;;;;;;4991937;28;20411;-89
2021/03/28 13:23:15;;;;;;;3.65;2.30;;;;;;;;;;4985143;28;21154;-88
2021/03/28 13:25:41;;;;;;;3.33;1.42;;;;;;;;;;4992012;28;20455;-87
2021/03/28 13:28:16;;;;;;;4.72;1.63;;;;;;;;;;5001119;28;20936;-87
2021/03/28 13:30:43;;;;;;;4.88;1.88;;;;;;;;;;4994495;28;20412;-86
2021/03/28 13:33:24;;;;;;;3.92;1.60;;;;;;;;;;4975672;28;21040;-87
2021/03/28 13:35:51;;;;;;;4.30;1.60;;;;;;;;;;5010441;28;20759;-86
2021/03/28 13:38:26;;;;;;;4.35;1.77;;;;;;;;;;4973663;28;21651;-87
2021/03/28 13:41:05;;;;;;;6.82;1.98;;;;;;;;;;5008716;28;20498;-86
2021/03/28 13:43:32;;;;;;;4.95;1.55;;;;;;;;;;4987078;28;20416;-87
2021/03/28 13:46:18;;;;;;;5.22;1.65;;;;;;;;;;4978292;28;20885;-86
2021/03/28 13:48:44;;;;;;;5.53;1.87;;;;;;;;;;5005886;28;20469;-85
2021/03/28 13:51:13;;;;;;;5.05;1.52;;;;;;;;;;4969795;28;20485;-89
2021/03/28 13:54:11;;;;;;;4.20;1.67;;;;;;;;;;5006576;28;20805;-88
2021/03/28 13:56:41;;;;;;;3.60;1.50;;;;;;;;;;4973863;28;20788;-89
2021/03/28 13:59:07;;;;;;;4.13;1.90;;;;;;;;;;4974537;28;20544;-88
2021/03/28 14:01:42;;;;;;;3.90;1.70;;;;;;;;;;4993137;28;20499;-89
2021/03/28 14:04:14;;;;;;;4.73;1.50;;;;;;;;;;5008139;28;20444;-89
2021/03/28 14:06:43;;;;;;;6.17;1.97;;;;;;;;;;5008317;28;20515;-89
2021/03/28 14:09:10;;;;;;;4.03;1.40;;;;;;;;;;4991578;28;20517;-89
2021/03/28 14:11:49;;;;;;;5.47;1.70;;;;;;;;;;4970314;28;20415;-88
2021/03/28 14:14:18;;;;;;;5.22;1.38;;;;;;;;;;5007641;28;20420;-88
2021/03/28 14:16:44;;;;;;;5.30;1.45;;;;;;;;;;5028681;28;20429;-88
2021/03/28 14:19:11;;;;;;;4.93;1.52;;;;;;;;;;5006661;28;20511;-89
2021/03/28 14:21:37;;;;;;;5.05;2.00;;;;;;;;;;5025078;28;20415;-88
2021/03/28 14:24:05;;;;;;;6.13;1.90;;;;;;;;;;4995444;28;20764;-87
2021/03/28 14:26:31;;;;;;;5.97;1.90;;;;;;;;;;4994421;28;20893;-88
2021/03/28 14:28:59;;;;;;;7.13;2.97;;;;;;;;;;5027711;28;20430;-88
2021/03/28 14:31:33;;;;;;;4.23;1.23;;;;;;;;;;5029583;28;20399;-89
2021/03/28 14:34:05;;;;;;;3.42;1.75;;;;;;;;;;4986668;28;20418;-89
2021/03/28 14:36:54;;;;;;;3.92;1.63;;;;;;;;;;5013492;28;20500;-89
2021/03/28 14:39:32;;;;;;;5.75;1.98;;;;;;;;;;5008866;28;20415;-89
2021/03/28 14:42:18;;;;;;;2.95;1.30;;;;;;;;;;5030338;28;20502;-89
2021/03/28 14:44:56;;;;;;;4.70;1.48;;;;;;;;;;5004705;28;20778;-88
2021/03/28 14:47:41;;;;;;;4.90;1.70;;;;;;;;;;5028278;28;20480;-88
2021/03/28 14:50:16;;;;;;;3.95;1.33;;;;;;;;;;5032784;28;20430;-88
2021/03/28 14:52:53;;;;;;;2.88;1.38;;;;;;;;;;4995913;28;20551;-89
2021/03/28 14:55:19;;;;;;;4.05;1.25;;;;;;;;;;4997254;28;20420;-89
2021/03/28 14:57:48;;;;;;;8.30;1.40;;;;;;;;;;5001234;28;20769;-88
2021/03/28 15:00:29;;;;;;;4.40;1.80;;;;;;;;;;4993280;28;20423;-88
2021/03/28 15:02:56;;;;;;;5.90;2.38;;;;;;;;;;5008913;28;20498;-90
2021/03/28 15:05:22;;;;;;;4.65;1.40;;;;;;;;;;5011703;28;20406;-88
2021/03/28 15:07:48;;;;;;;5.50;1.48;;;;;;;;;;5013779;28;20434;-88
2021/03/28 15:10:20;;;;;;;2.55;1.17;;;;;;;;;;5013329;28;21036;-88
2021/03/28 15:12:49;;;;;;;6.03;1.50;;;;;;;;;;5010732;28;20419;-88
2021/03/28 15:15:27;;;;;;;7.82;1.73;;;;;;;;;;5015140;28;20415;-89
2021/03/28 15:18:08;;;;;;;5.90;1.70;;;;;;;;;;5009581;28;20852;-87
2021/03/28 15:20:39;;;;;;;5.80;1.67;;;;;;;;;;5018944;28;20401;-94
2021/03/28 15:23:25;;;;;;;6.43;1.95;;;;;;;;;;5021612;28;20438;-90
2021/03/28 15:26:08;;;;;;;5.00;1.70;;;;;;;;;;5012010;28;20402;-91
2021/03/28 15:28:34;;;;;;;10.13;2.63;;;;;;;;;;5015723;28;20480;-89
2021/03/28 15:31:20;;;;;;;13.90;1.67;;;;;;;;;;4995239;28;20408;-91
2021/03/28 15:33:46;;;;;;;4.00;1.35;;;;;;;;;;5001011;28;21310;-94
2021/03/28 15:36:48;;;;;;;5.40;1.47;;;;;;;;;;5008066;28;20409;-90